Terminal Aerodrome Forecast
Issued by NWS

Home | Current Version | Previous Version | Text Only | Print | Product List | Glossary On
Versions: 1 2 3 4 5 6 7 8 9 10 11 12
000
FTUS43 KJKL 261739
TAFSJS
TAF
KSJS 261739Z 2618/2718 26010G25KT 2SM RA OVC040
     FM261830 26010G20KT P6SM VCSH OVC020
     FM262200 32009G15KT 3SM -RA BR OVC007
     FM270600 35005KT 6SM -RA BR SCT007 BKN010
     FM271100 34005KT 6SM BR SCT007 SCT010
     FM271300 34005KT P6SM SCT010 SCT040
     FM271600 32003KT P6SM BKN030=

USA.gov is the U.S. government's official web portal to all federal, state and local government web resources and services.